Time;durP1;ratioP1;P1;durP2;ratioP2;P2;SDS_P1;SDS_P2;PMS_P1;PMS_P2;Temp;Humidity;BMP_temperature;BMP_pressure;BME280_temperature;BME280_humidity;BME280_pressure;Samples;Min_cycle;Max_cycle;Signal;HPM_P1;HPM_P2
2023/05/19 00:01:53;;;;;;;10.50;4.40;;;10.10;90.30;;;;;;5120439;28;20228;-94
2023/05/19 00:07:07;;;;;;;11.57;4.32;;;10.10;90.30;;;;;;5109708;28;20193;-93
2023/05/19 00:09:34;;;;;;;9.45;4.45;;;10.10;90.30;;;;;;5112746;28;20208;-93
2023/05/19 00:12:01;;;;;;;11.82;5.00;;;10.10;90.30;;;;;;5109677;28;20201;-95
2023/05/19 00:14:29;;;;;;;9.45;4.57;;;10.10;90.30;;;;;;5103432;28;20224;-93
2023/05/19 00:16:56;;;;;;;9.40;4.80;;;10.10;90.30;;;;;;5093802;28;20201;-92
2023/05/19 00:19:25;;;;;;;10.15;4.63;;;10.20;90.30;;;;;;5110987;28;20250;-93
2023/05/19 00:21:52;;;;;;;11.32;4.38;;;10.20;90.30;;;;;;5105922;28;20264;-94
2023/05/19 00:24:19;;;;;;;10.90;4.50;;;10.20;90.30;;;;;;5115758;28;20295;-92
2023/05/19 00:26:46;;;;;;;11.57;4.47;;;10.20;90.30;;;;;;5115366;28;20185;-91
2023/05/19 00:29:17;;;;;;;14.15;4.78;;;10.10;90.40;;;;;;5093418;28;20192;-91
2023/05/19 00:31:44;;;;;;;9.90;4.53;;;10.00;90.90;;;;;;5108545;27;20226;-93
2023/05/19 00:34:11;;;;;;;10.23;4.60;;;10.10;91.20;;;;;;5061243;28;20236;-93
2023/05/19 00:36:40;;;;;;;8.55;4.40;;;10.20;90.60;;;;;;5109204;28;20615;-92
2023/05/19 00:39:07;;;;;;;10.38;4.90;;;10.20;90.50;;;;;;5087760;28;20220;-93
2023/05/19 00:41:34;;;;;;;9.77;4.40;;;10.10;90.60;;;;;;5079071;28;20204;-92
2023/05/19 00:44:01;;;;;;;9.40;4.38;;;10.10;91.20;;;;;;5117348;28;20200;-93
2023/05/19 00:46:29;;;;;;;9.57;4.32;;;10.10;90.70;;;;;;5112853;28;20280;-92
2023/05/19 00:48:56;;;;;;;10.52;5.00;;;10.10;90.90;;;;;;5092293;28;20516;-89
2023/05/19 00:51:25;;;;;;;12.55;4.80;;;10.00;91.40;;;;;;5106984;28;20260;-93
2023/05/19 00:56:35;;;;;;;14.70;4.53;;;10.00;91.10;;;;;;5108940;28;20208;-91
2023/05/19 00:59:22;;;;;;;13.40;4.63;;;10.00;91.30;;;;;;5101618;28;20229;-93
2023/05/19 01:01:49;;;;;;;8.60;4.53;;;10.00;91.90;;;;;;5108403;28;20192;-92
2023/05/19 01:06:57;;;;;;;18.35;4.90;;;9.90;92.60;;;;;;5099830;28;20211;-92
2023/05/19 01:17:41;;;;;;;8.25;4.18;;;10.00;92.20;;;;;;5109096;28;20222;-93
2023/05/19 01:23:17;;;;;;;11.98;4.30;;;10.10;91.90;;;;;;5116422;28;20192;-93
2023/05/19 01:26:29;;;;;;;15.15;4.70;;;10.10;91.50;;;;;;5107939;28;20190;-92
2023/05/19 01:32:12;;;;;;;11.88;4.50;;;10.10;92.20;;;;;;5102807;28;20241;-92
2023/05/19 01:34:59;;;;;;;8.73;4.57;;;10.10;92.10;;;;;;5112061;28;20196;-93
2023/05/19 01:45:34;;;;;;;12.32;4.82;;;10.00;92.40;;;;;;5109713;28;20180;-90
2023/05/19 01:51:06;;;;;;;10.30;4.60;;;10.20;92.20;;;;;;5113045;28;20196;-93
2023/05/19 01:53:42;;;;;;;12.68;4.60;;;10.10;92.00;;;;;;5113951;28;20227;-92
2023/05/19 01:56:40;;;;;;;13.05;4.60;;;10.10;92.20;;;;;;5113574;28;20227;-93
2023/05/19 01:59:23;;;;;;;10.75;4.82;;;10.00;92.30;;;;;;5111540;28;20211;-93
2023/05/19 02:01:55;;;;;;;9.40;4.22;;;10.00;92.20;;;;;;5119298;28;20203;-93
2023/05/19 02:10:06;;;;;;;9.13;4.40;;;9.90;93.40;;;;;;5093331;28;20188;-93
2023/05/19 02:15:20;;;;;;;11.18;4.30;;;9.90;93.00;;;;;;5105663;28;20213;-94
2023/05/19 02:17:50;;;;;;;8.95;4.22;;;9.90;93.20;;;;;;5111436;28;20292;-92
2023/05/19 02:23:00;;;;;;;13.73;4.70;;;9.90;93.40;;;;;;5111021;28;20562;-91
2023/05/19 02:25:27;;;;;;;14.07;4.97;;;9.80;93.40;;;;;;5108986;28;20249;-93
2023/05/19 02:27:59;;;;;;;11.65;4.93;;;9.80;93.50;;;;;;5115299;28;20200;-93
2023/05/19 02:30:34;;;;;;;10.20;4.72;;;9.80;93.60;;;;;;5105728;28;20215;-93
2023/05/19 02:33:10;;;;;;;11.77;4.95;;;9.70;94.00;;;;;;5102687;28;20197;-93
2023/05/19 02:38:20;;;;;;;12.07;4.78;;;9.60;94.30;;;;;;5109332;28;20260;-92
2023/05/19 02:40:47;;;;;;;10.57;4.90;;;9.60;94.30;;;;;;5107015;28;20220;-93
2023/05/19 02:43:13;;;;;;;14.13;5.13;;;9.50;94.50;;;;;;5120466;28;20223;-94
2023/05/19 02:45:40;;;;;;;12.63;5.30;;;9.60;94.30;;;;;;5111309;28;20190;-92
2023/05/19 02:48:08;;;;;;;15.82;5.30;;;9.50;94.70;;;;;;5113683;28;20295;-91
2023/05/19 02:50:58;;;;;;;9.52;5.22;;;9.40;94.90;;;;;;5101574;28;20197;-93
2023/05/19 02:53:25;;;;;;;11.20;5.63;;;9.40;95.30;;;;;;5109486;28;20272;-94
2023/05/19 02:55:52;;;;;;;8.23;5.07;;;9.50;95.20;;;;;;5086642;28;20212;-93
2023/05/19 02:58:20;;;;;;;9.50;4.95;;;9.40;95.20;;;;;;5112142;28;20196;-94
2023/05/19 03:00:47;;;;;;;11.00;5.60;;;9.40;95.70;;;;;;5098861;28;20239;-92
2023/05/19 03:03:22;;;;;;;11.48;5.13;;;9.40;95.80;;;;;;5114188;28;20215;-93
2023/05/19 03:05:49;;;;;;;12.55;5.30;;;9.40;95.70;;;;;;5110625;28;20242;-93
2023/05/19 03:10:58;;;;;;;11.60;5.50;;;9.30;95.80;;;;;;5099620;28;20196;-92
2023/05/19 03:13:25;;;;;;;17.90;7.63;;;9.30;96.00;;;;;;5090801;28;20230;-91
2023/05/19 03:18:32;;;;;;;10.85;5.03;;;9.40;96.00;;;;;;5110929;28;20228;-91
2023/05/19 03:21:00;;;;;;;15.68;6.95;;;9.40;95.70;;;;;;5097122;28;20246;-92
2023/05/19 03:26:17;;;;;;;13.18;5.03;;;9.30;95.80;;;;;;5114905;28;20209;-93
2023/05/19 03:28:44;;;;;;;9.95;4.80;;;9.30;96.00;;;;;;5091609;28;20208;-93
2023/05/19 03:31:11;;;;;;;12.98;5.47;;;9.30;96.00;;;;;;5111455;28;20231;-93
2023/05/19 03:33:38;;;;;;;9.23;5.10;;;9.30;96.00;;;;;;5110453;28;20311;-92
2023/05/19 03:36:06;;;;;;;9.48;4.90;;;9.30;96.00;;;;;;5113771;28;20220;-93
2023/05/19 03:38:33;;;;;;;15.90;5.70;;;9.30;96.00;;;;;;5113978;28;20272;-91
2023/05/19 03:41:08;;;;;;;10.43;5.00;;;9.30;96.00;;;;;;5096018;28;20220;-93
2023/05/19 03:43:36;;;;;;;11.40;5.45;;;9.30;96.00;;;;;;5113339;28;20200;-92
2023/05/19 03:46:02;;;;;;;11.02;5.60;;;9.30;96.00;;;;;;5094461;28;20260;-93
2023/05/19 03:48:29;;;;;;;9.70;4.88;;;9.30;96.00;;;;;;5096841;28;20211;-92
2023/05/19 03:50:56;;;;;;;10.88;5.38;;;9.30;96.10;;;;;;5116042;28;20199;-93
2023/05/19 03:53:23;;;;;;;10.77;5.25;;;9.50;95.90;;;;;;5077389;28;20180;-92
2023/05/19 03:55:50;;;;;;;18.08;5.25;;;9.50;96.00;;;;;;5110776;28;20241;-93
2023/05/19 04:00:59;;;;;;;12.95;5.25;;;9.50;95.80;;;;;;5074726;28;20231;-93
2023/05/19 04:03:27;;;;;;;8.95;5.20;;;9.50;96.00;;;;;;5110177;28;20265;-91
2023/05/19 04:08:34;;;;;;;10.40;4.82;;;9.50;96.00;;;;;;5106386;28;20225;-93
2023/05/19 04:11:02;;;;;;;8.07;5.15;;;9.50;96.00;;;;;;5093471;28;20185;-93
2023/05/19 04:16:14;;;;;;;10.10;4.68;;;9.50;96.00;;;;;;5107881;28;20215;-94
2023/05/19 04:18:41;;;;;;;11.20;5.30;;;9.70;95.40;;;;;;5095921;28;21104;-92
2023/05/19 04:21:07;;;;;;;12.45;5.10;;;9.70;95.30;;;;;;5112526;28;20229;-94
2023/05/19 04:23:34;;;;;;;12.57;5.38;;;9.80;95.20;;;;;;5107980;28;20248;-92
2023/05/19 04:26:02;;;;;;;12.63;4.90;;;9.90;95.40;;;;;;5108449;28;20211;-93
2023/05/19 04:28:30;;;;;;;7.82;4.70;;;10.00;94.60;;;;;;5110932;28;20248;-93
2023/05/19 04:30:58;;;;;;;12.13;5.40;;;9.90;94.60;;;;;;5114969;28;20196;-93
2023/05/19 04:33:28;;;;;;;12.05;4.90;;;9.90;94.90;;;;;;5093862;28;20188;-93
2023/05/19 04:35:55;;;;;;;8.25;4.72;;;9.90;94.90;;;;;;5110389;28;20227;-91
2023/05/19 04:38:22;;;;;;;10.65;4.45;;;9.80;94.80;;;;;;5112792;28;20260;-92
2023/05/19 04:40:50;;;;;;;14.65;5.07;;;9.90;95.00;;;;;;5090989;28;20212;-92
2023/05/19 04:43:18;;;;;;;10.60;4.60;;;10.10;93.80;;;;;;5106737;28;20231;-93
2023/05/19 04:48:29;;;;;;;10.00;5.03;;;10.10;94.00;;;;;;5389922;22;20206;-93
2023/05/19 04:50:56;;;;;;;11.32;4.60;;;10.10;93.70;;;;;;5102298;28;20229;-95
2023/05/19 04:53:24;;;;;;;9.32;4.85;;;10.10;93.80;;;;;;5100068;28;20272;-93
2023/05/19 04:55:51;;;;;;;11.40;4.55;;;10.10;93.80;;;;;;5101263;28;20227;-94
2023/05/19 05:03:31;;;;;;;15.07;5.25;;;10.40;92.90;;;;;;5174157;22;20588;-94
2023/05/19 05:05:58;;;;;;;9.82;4.63;;;10.40;92.90;;;;;;5081315;28;20203;-94
2023/05/19 05:08:26;;;;;;;8.35;4.00;;;10.60;92.90;;;;;;5096119;28;20562;-94
2023/05/19 05:10:53;;;;;;;11.60;4.63;;;10.60;92.30;;;;;;5078942;28;20351;-93
2023/05/19 05:13:23;;;;;;;12.43;5.20;;;10.80;91.50;;;;;;5075025;28;20216;-94
2023/05/19 05:15:51;;;;;;;9.63;4.72;;;10.70;92.00;;;;;;5048533;28;20201;-93
2023/05/19 05:18:18;;;;;;;11.65;4.80;;;10.80;91.80;;;;;;5089133;28;20220;-94
2023/05/19 05:20:48;;;;;;;10.35;5.00;;;10.90;91.20;;;;;;5072616;28;20274;-94
2023/05/19 05:23:15;;;;;;;10.48;4.75;;;10.80;92.00;;;;;;5087191;28;20230;-93
2023/05/19 05:25:43;;;;;;;12.15;5.28;;;10.80;92.20;;;;;;5096812;28;20215;-94
2023/05/19 05:28:10;;;;;;;9.48;4.70;;;11.10;92.10;;;;;;5092642;28;20192;-94
2023/05/19 05:30:37;;;;;;;8.25;4.63;;;11.50;91.00;;;;;;5088889;28;20196;-93
2023/05/19 05:33:06;;;;;;;9.38;4.53;;;11.70;90.70;;;;;;5081991;28;20193;-94
2023/05/19 05:35:33;;;;;;;10.40;4.43;;;12.00;87.80;;;;;;5076672;28;20208;-91
2023/05/19 05:38:02;;;;;;;8.90;4.55;;;12.20;84.70;;;;;;5098578;28;20181;-92
2023/05/19 05:40:29;;;;;;;15.10;4.50;;;12.20;84.00;;;;;;5111851;28;20224;-95
2023/05/19 05:42:57;;;;;;;11.73;4.40;;;12.00;85.30;;;;;;5082062;28;20680;-94
2023/05/19 05:45:26;;;;;;;10.65;4.53;;;12.10;82.90;;;;;;5097311;28;20197;-94
2023/05/19 05:47:53;;;;;;;10.70;4.30;;;12.00;82.50;;;;;;5094785;28;20304;-95
2023/05/19 05:50:20;;;;;;;9.63;4.60;;;12.00;83.70;;;;;;5096739;28;20206;-96
2023/05/19 05:52:48;;;;;;;6.63;4.00;;;12.10;82.30;;;;;;5096416;28;20194;-94
2023/05/19 05:55:20;;;;;;;7.72;4.28;;;12.20;82.00;;;;;;5100051;28;20205;-94
2023/05/19 05:57:47;;;;;;;9.35;4.70;;;12.20;81.10;;;;;;5100563;28;20222;-94
2023/05/19 06:00:15;;;;;;;9.48;4.55;;;12.20;80.50;;;;;;5101373;28;20200;-95
2023/05/19 06:02:43;;;;;;;11.68;4.88;;;12.20;80.10;;;;;;5089799;28;20217;-94
2023/05/19 06:08:13;;;;;;;9.25;4.32;;;12.20;80.30;;;;;;5105169;28;20264;-93
2023/05/19 06:11:10;;;;;;;8.75;4.45;;;12.10;80.10;;;;;;5073554;28;20202;-93
2023/05/19 06:13:37;;;;;;;8.00;4.40;;;12.00;82.20;;;;;;5103052;28;20218;-93
2023/05/19 06:16:05;;;;;;;9.90;4.25;;;12.00;81.90;;;;;;5073172;28;20207;-94
2023/05/19 06:18:33;;;;;;;10.85;4.18;;;11.90;82.90;;;;;;5069918;28;20216;-94
2023/05/19 06:21:00;;;;;;;8.25;3.90;;;11.90;81.60;;;;;;5090473;28;20316;-91
2023/05/19 06:23:28;;;;;;;6.97;3.95;;;11.90;81.50;;;;;;5083405;28;20200;-93
2023/05/19 06:25:55;;;;;;;8.48;4.15;;;11.90;82.40;;;;;;5100516;28;20324;-93
2023/05/19 06:28:23;;;;;;;9.32;4.03;;;12.20;81.80;;;;;;5095553;28;20247;-93
2023/05/19 06:30:50;;;;;;;7.13;3.97;;;12.20;80.60;;;;;;5081684;28;20193;-94
2023/05/19 06:33:17;;;;;;;6.75;3.83;;;12.40;81.20;;;;;;5076212;28;20560;-94
2023/05/19 06:35:44;;;;;;;10.63;3.92;;;12.60;76.70;;;;;;5078420;28;20655;-93
2023/05/19 06:38:11;;;;;;;8.93;4.20;;;12.70;75.60;;;;;;5081103;28;20205;-94
2023/05/19 06:40:38;;;;;;;7.05;4.07;;;12.60;77.70;;;;;;5054333;28;20203;-94
2023/05/19 06:43:05;;;;;;;5.93;3.30;;;12.70;75.60;;;;;;5097075;28;20204;-93
2023/05/19 06:48:15;;;;;;;7.30;3.33;;;12.50;77.80;;;;;;5100113;28;20200;-94
2023/05/19 06:50:43;;;;;;;10.05;4.15;;;12.60;77.20;;;;;;5100291;28;20242;-92
2023/05/19 06:53:15;;;;;;;7.00;3.47;;;12.90;76.70;;;;;;5104019;28;20295;-93
2023/05/19 06:55:48;;;;;;;9.18;3.85;;;13.10;74.60;;;;;;5102001;28;20211;-93
2023/05/19 06:58:17;;;;;;;6.10;3.60;;;13.30;71.10;;;;;;5060376;28;20705;-93
2023/05/19 07:00:48;;;;;;;5.63;3.28;;;13.50;73.60;;;;;;5087645;28;20257;-94
2023/05/19 07:03:15;;;;;;;5.38;3.17;;;13.70;66.70;;;;;;5097203;28;20196;-93
2023/05/19 07:05:48;;;;;;;7.15;3.15;;;13.90;62.90;;;;;;5086447;28;20290;-94
2023/05/19 07:08:16;;;;;;;6.32;3.40;;;14.20;57.30;;;;;;5075080;28;20246;-94
2023/05/19 07:10:43;;;;;;;6.97;3.53;;;14.40;53.80;;;;;;5090585;28;20724;-94
2023/05/19 07:13:10;;;;;;;9.27;3.60;;;14.50;53.90;;;;;;5097566;28;20279;-94
2023/05/19 07:15:38;;;;;;;5.85;3.60;;;14.50;50.90;;;;;;5078086;28;20228;-93
2023/05/19 07:18:10;;;;;;;5.40;3.40;;;14.20;56.30;;;;;;5081692;28;20213;-93
2023/05/19 07:20:37;;;;;;;8.13;3.72;;;14.20;55.80;;;;;;5076361;28;20211;-94
2023/05/19 07:23:06;;;;;;;9.65;3.40;;;14.20;54.80;;;;;;5096856;28;20196;-94
2023/05/19 07:25:34;;;;;;;6.03;3.28;;;13.90;58.80;;;;;;5072521;28;20198;-93
2023/05/19 07:28:03;;;;;;;6.82;3.70;;;14.10;55.30;;;;;;5095804;28;20242;-93
2023/05/19 07:30:31;;;;;;;5.95;3.33;;;14.00;56.20;;;;;;5076381;28;20283;-92
2023/05/19 07:32:59;;;;;;;7.28;3.63;;;13.90;56.10;;;;;;5079220;28;20226;-94
2023/05/19 07:35:28;;;;;;;6.90;3.22;;;13.80;58.40;;;;;;5080385;28;20299;-94
2023/05/19 07:37:55;;;;;;;5.35;3.10;;;14.20;56.40;;;;;;5090198;28;20568;-90
2023/05/19 07:40:23;;;;;;;4.25;2.80;;;14.40;52.60;;;;;;5092675;28;20208;-92
2023/05/19 07:42:50;;;;;;;4.57;3.15;;;14.60;50.30;;;;;;5087412;28;20220;-93
2023/05/19 07:45:17;;;;;;;4.32;2.95;;;14.70;51.10;;;;;;5080074;28;20250;-88
2023/05/19 07:48:27;;;;;;;4.68;3.00;;;14.80;51.20;;;;;;5098828;28;20203;-94
2023/05/19 07:51:00;;;;;;;5.80;2.85;;;15.00;48.90;;;;;;5115279;28;20226;-94
2023/05/19 07:53:47;;;;;;;5.75;3.22;;;15.20;44.60;;;;;;5090012;28;20208;-95
2023/05/19 07:56:14;;;;;;;8.70;3.30;;;15.00;46.80;;;;;;5106443;28;20220;-94
2023/05/19 07:59:00;;;;;;;4.38;3.00;;;14.90;49.70;;;;;;5113791;28;20216;-94
2023/05/19 08:04:42;;;;;;;7.65;3.60;;;15.00;47.60;;;;;;5036694;28;20265;-95
2023/05/19 08:16:28;;;;;;;5.35;3.50;;;14.70;48.50;;;;;;5102414;28;20258;-92
2023/05/19 08:21:36;;;;;;;6.40;3.58;;;14.20;50.60;;;;;;5069368;28;20710;-91
2023/05/19 08:26:46;;;;;;;7.32;3.80;;;13.70;54.50;;;;;;5080301;28;20212;-92
2023/05/19 08:57:09;;;;;;;7.35;4.30;;;13.30;64.20;;;;;;5079353;28;20196;-90
2023/05/19 09:03:48;;;;;;;6.97;4.57;;;13.20;63.60;;;;;;5115151;28;20349;-91
2023/05/19 09:06:15;;;;;;;6.53;4.25;;;13.20;64.40;;;;;;5091844;28;20211;-88
2023/05/19 09:09:32;;;;;;;7.53;4.13;;;13.10;63.30;;;;;;5094975;28;20723;-90
2023/05/19 09:15:35;;;;;;;7.43;4.50;;;13.10;64.80;;;;;;5094609;28;20611;-90
2023/05/19 10:07:51;;;;;;;9.73;5.45;;;13.80;52.90;;;;;;4989662;28;20294;-93
2023/05/19 10:34:22;;;;;;;9.95;6.57;;;13.60;62.30;;;;;;5070452;28;20200;-95
2023/05/19 10:36:58;;;;;;;6.57;5.88;;;13.70;65.50;;;;;;5096268;28;20204;-92
2023/05/19 10:49:06;;;;;;;8.68;5.80;;;14.20;52.50;;;;;;5088072;28;20261;-91
2023/05/19 10:51:34;;;;;;;8.63;5.88;;;14.10;57.60;;;;;;5089610;28;20204;-94
2023/05/19 10:54:02;;;;;;;7.70;5.80;;;14.20;55.10;;;;;;5085280;28;20201;-94
2023/05/19 11:02:46;;;;;;;7.43;6.18;;;14.60;51.00;;;;;;5077436;28;20228;-93
2023/05/19 11:08:28;;;;;;;8.60;6.32;;;14.30;52.70;;;;;;5070912;28;20563;-92
2023/05/19 11:14:35;;;;;;;9.13;6.68;;;14.00;57.70;;;;;;5096596;28;20680;-90
2023/05/19 11:29:47;;;;;;;9.80;7.10;;;14.60;51.00;;;;;;4971628;28;20224;-92
2023/05/19 11:41:29;;;;;;;12.73;7.25;;;14.60;54.00;;;;;;5009620;28;20583;-93
2023/05/19 11:48:04;;;;;;;9.63;7.38;;;14.90;51.30;;;;;;5033492;28;20157;-92
2023/05/19 12:03:39;;;;;;;9.20;7.90;;;14.40;51.40;;;;;;5035786;28;20222;-94
2023/05/19 12:06:07;;;;;;;9.55;7.15;;;14.20;53.30;;;;;;5072859;28;20266;-93
2023/05/19 12:14:13;;;;;;;8.13;7.00;;;13.90;59.70;;;;;;5047642;28;20679;-94
2023/05/19 12:16:43;;;;;;;9.95;7.47;;;14.00;57.70;;;;;;5054335;28;20206;-93
2023/05/19 12:29:54;;;;;;;11.57;8.18;;;14.00;57.60;;;;;;5159675;22;20266;-89
2023/05/19 12:32:24;;;;;;;10.00;7.72;;;13.90;57.60;;;;;;5070087;28;20211;-89
2023/05/19 18:00:34;;;;;;;6.25;5.28;;;15.30;69.90;;;;;;5746254;22;20228;-94
2023/05/19 18:03:03;;;;;;;5.95;5.35;;;15.30;70.10;;;;;;5094313;28;20224;-95
2023/05/19 18:05:49;;;;;;;5.47;4.97;;;15.30;69.60;;;;;;5087321;28;20220;-96
2023/05/19 18:11:43;;;;;;;7.45;5.80;;;15.20;71.00;;;;;;5100203;28;20342;-96
2023/05/19 18:14:13;;;;;;;7.57;5.95;;;15.20;72.20;;;;;;5083265;28;20201;-96
2023/05/19 18:19:21;;;;;;;8.82;6.20;;;15.10;73.80;;;;;;5069365;28;20224;-96
2023/05/19 18:21:48;;;;;;;7.85;5.53;;;15.10;75.10;;;;;;5055324;28;20197;-96
